createdAt,value
2022-08-07T00:02:37.292Z,93558.13
2022-08-07T00:04:35.371Z,93547.78
2022-08-07T00:07:20.041Z,93555.88
2022-08-07T00:10:26.340Z,93557.34
2022-08-07T00:13:17.463Z,93544.22
2022-08-07T00:16:07.571Z,93552.81
2022-08-07T00:18:50.705Z,93554.44
2022-08-07T00:21:57.155Z,93553.47
2022-08-07T00:24:38.403Z,93560.28
2022-08-07T00:27:23.134Z,93556.72
2022-08-07T00:30:27.589Z,93552.16
2022-08-07T00:33:11.754Z,93553.00
2022-08-07T00:35:55.117Z,93561.72
2022-08-07T00:38:39.828Z,93568.81
2022-08-07T00:41:33.695Z,93572.38
2022-08-07T00:44:28.729Z,93579.00
2022-08-07T00:47:15.963Z,93576.28
2022-08-07T00:50:20.122Z,93566.72
2022-08-07T00:53:18.533Z,93555.59
2022-08-07T00:56:04.004Z,93562.38
2022-08-07T00:58:52.685Z,93555.28
2022-08-07T01:01:44.254Z,93552.81
2022-08-07T01:04:30.292Z,93556.91
2022-08-07T01:07:16.281Z,93558.53
2022-08-07T01:10:06.557Z,93548.78
2022-08-07T01:12:55.271Z,93557.38
2022-08-07T01:16:05.622Z,93552.53
2022-08-07T01:18:48.359Z,93552.34
2022-08-07T01:21:36.942Z,93543.00
2022-08-07T01:24:21.773Z,93541.38
2022-08-07T01:27:06.526Z,93538.78
2022-08-07T01:30:03.862Z,93543.00
2022-08-07T01:32:47.077Z,93542.16
2022-08-07T01:35:52.883Z,93542.16
2022-08-07T01:38:35.027Z,93540.41
2022-08-07T01:41:27.965Z,93531.03
2022-08-07T01:44:16.391Z,93528.75
2022-08-07T01:47:01.169Z,93524.53
2022-08-07T01:49:59.315Z,93533.09
2022-08-07T01:52:49.747Z,93538.28
2022-08-07T01:55:46.607Z,93536.66
2022-08-07T01:58:34.247Z,93530.34
2022-08-07T02:02:02.741Z,93526.44
2022-08-07T02:04:38.228Z,93522.56
2022-08-07T02:07:44.925Z,93533.22
2022-08-07T02:10:42.325Z,93531.75
2022-08-07T02:13:57.768Z,93536.09
2022-08-07T02:16:37.111Z,93534.13
2022-08-07T02:20:07.241Z,93526.69
2022-08-07T02:22:27.045Z,93530.38
2022-08-07T02:25:17.527Z,93522.25
2022-08-07T02:28:13.895Z,93524.19
2022-08-07T02:31:18.975Z,93525.63
2022-08-07T02:34:17.273Z,93521.03
2022-08-07T02:37:08.919Z,93525.03
2022-08-07T02:40:02.111Z,93519.22
2022-08-07T02:43:07.788Z,93507.91
2022-08-07T02:45:58.876Z,93506.13
2022-08-07T02:48:54.764Z,93504.50
2022-08-07T02:51:49.883Z,93499.22
2022-08-07T02:54:40.850Z,93505.34
2022-08-07T02:57:28.790Z,93506.91
2022-08-07T03:00:18.332Z,93509.00
2022-08-07T03:03:07.257Z,93508.63
2022-08-07T03:06:00.928Z,93502.19
2022-08-07T03:08:44.687Z,93503.78
2022-08-07T03:11:28.832Z,93503.13
2022-08-07T03:14:17.803Z,93495.69
2022-08-07T03:17:04.427Z,93497.44
2022-08-07T03:19:54.812Z,93492.94
2022-08-07T03:22:42.851Z,93497.97
2022-08-07T03:25:40.459Z,93480.84
2022-08-07T03:28:37.500Z,93480.84
2022-08-07T03:31:24.522Z,93477.13
2022-08-07T03:34:18.194Z,93482.41
2022-08-07T03:37:11.863Z,93487.75
2022-08-07T03:40:15.692Z,93483.03
2022-08-07T03:43:01.414Z,93482.22
2022-08-07T03:45:49.553Z,93478.84
2022-08-07T03:48:45.417Z,93475.44
2022-08-07T03:51:47.070Z,93475.88
2022-08-07T03:54:54.374Z,93472.66
2022-08-07T03:58:33.395Z,93475.53
2022-08-07T04:00:54.027Z,93471.19
2022-08-07T04:03:54.039Z,93478.09
2022-08-07T04:06:41.650Z,93480.03
2022-08-07T04:09:44.672Z,93472.16
2022-08-07T04:12:32.997Z,93477.16
2022-08-07T04:15:19.967Z,93479.44
2022-08-07T04:18:57.945Z,93484.31
2022-08-07T04:21:10.983Z,93485.09
2022-08-07T04:24:03.601Z,93477.66
2022-08-07T04:26:50.217Z,93489.59
2022-08-07T04:29:48.662Z,93491.22
2022-08-07T04:32:39.292Z,93498.84
2022-08-07T04:35:35.433Z,93495.13
2022-08-07T04:38:24.095Z,93483.84
2022-08-07T04:41:07.956Z,93484.50
2022-08-07T04:44:12.216Z,93482.41
2022-08-07T04:47:10.768Z,93488.06
2022-08-07T04:50:12.039Z,93490.22
2022-08-07T04:53:06.022Z,93490.72
2022-08-07T04:58:15.549Z,93491.06
2022-08-07T05:00:07.821Z,93486.22
2022-08-07T05:02:20.609Z,93488.50
2022-08-07T05:05:52.024Z,93488.88
2022-08-07T05:08:59.916Z,93488.41
2022-08-07T05:11:57.465Z,93492.63
2022-08-07T05:14:54.052Z,93496.88
2022-08-07T05:17:52.804Z,93485.94
2022-08-07T05:20:42.878Z,93489.00
2022-08-07T05:23:35.476Z,93494.66
2022-08-07T05:26:24.261Z,93493.22
2022-08-07T05:29:16.846Z,93494.06
2022-08-07T05:32:03.457Z,93497.81
2022-08-07T05:34:50.644Z,93497.97
2022-08-07T05:37:40.776Z,93504.16
2022-08-07T05:40:25.982Z,93502.22
2022-08-07T05:43:12.178Z,93500.81
2022-08-07T05:45:58.089Z,93500.47
2022-08-07T05:48:58.285Z,93507.41
2022-08-07T05:51:48.022Z,93512.78
2022-08-07T05:54:53.806Z,93511.00
2022-08-07T05:57:41.996Z,93515.22
2022-08-07T06:00:27.003Z,93517.00
2022-08-07T06:03:17.997Z,93514.75
2022-08-07T06:06:01.708Z,93512.00
2022-08-07T06:08:48.152Z,93503.06
2022-08-07T06:11:35.294Z,93511.31
2022-08-07T06:14:21.306Z,93510.69
2022-08-07T06:17:12.597Z,93504.34
2022-08-07T06:20:04.435Z,93503.03
2022-08-07T06:23:04.117Z,93504.19
2022-08-07T06:26:00.980Z,93499.81
2022-08-07T06:28:50.622Z,93501.72
2022-08-07T06:31:47.054Z,93504.63
2022-08-07T06:34:34.631Z,93504.13
2022-08-07T06:37:43.931Z,93502.84
2022-08-07T06:40:22.303Z,93502.50
2022-08-07T06:43:21.546Z,93501.81
2022-08-07T06:46:35.028Z,93508.75
2022-08-07T06:49:19.035Z,93506.28
2022-08-07T06:52:07.552Z,93511.16
2022-08-07T06:55:31.624Z,93501.72
2022-08-07T06:58:02.343Z,93499.25
2022-08-07T07:00:53.661Z,93500.19
2022-08-07T07:03:48.615Z,93499.50
2022-08-07T07:06:32.733Z,93499.63
2022-08-07T07:09:24.540Z,93500.75
2022-08-07T07:12:33.395Z,93504.44
2022-08-07T07:15:23.936Z,93498.91
2022-08-07T07:18:46.862Z,93502.59
2022-08-07T07:21:24.338Z,93496.09
2022-08-07T07:24:12.669Z,93504.19
2022-08-07T07:27:00.187Z,93506.91
2022-08-07T07:30:08.678Z,93499.44
2022-08-07T07:32:54.736Z,93491.75
2022-08-07T07:35:44.080Z,93497.84
2022-08-07T07:38:47.661Z,93497.31
2022-08-07T07:41:50.736Z,93495.66
2022-08-07T07:44:39.858Z,93493.00
2022-08-07T07:47:24.450Z,93494.88
2022-08-07T07:50:36.312Z,93488.16
2022-08-07T07:53:23.085Z,93494.09
2022-08-07T07:56:09.463Z,93495.66
2022-08-07T07:58:54.464Z,93496.09
2022-08-07T08:02:03.463Z,93486.59
2022-08-07T08:04:46.122Z,93497.09
2022-08-07T08:07:51.536Z,93494.59
2022-08-07T08:10:41.792Z,93498.44
2022-08-07T08:13:36.812Z,93494.16
2022-08-07T08:16:38.904Z,93495.84
2022-08-07T08:20:15.999Z,93493.53
2022-08-07T08:22:55.997Z,93495.22
2022-08-07T08:26:06.641Z,93489.91
2022-08-07T08:28:53.394Z,93494.84
2022-08-07T08:34:49.975Z,93486.19
2022-08-07T08:38:01.507Z,93491.84
2022-08-07T08:40:47.472Z,93490.31
2022-08-07T08:43:42.629Z,93489.13
2022-08-07T08:46:44.907Z,93484.81
2022-08-07T08:50:02.955Z,93486.66
2022-08-07T08:52:54.976Z,93486.13
2022-08-07T08:55:54.560Z,93486.28
2022-08-07T08:58:54.546Z,93491.19
2022-08-07T09:01:49.047Z,93497.47
2022-08-07T09:04:42.381Z,93480.78
2022-08-07T09:07:45.926Z,93485.84
2022-08-07T09:10:38.847Z,93480.31
2022-08-07T09:13:40.708Z,93478.00
2022-08-07T09:16:41.928Z,93483.53
2022-08-07T09:19:53.744Z,93484.03
2022-08-07T09:24:34.136Z,93476.31
2022-08-07T09:26:08.134Z,93480.09
2022-08-07T09:30:04.953Z,93477.34
2022-08-07T09:32:17.249Z,93473.97
2022-08-07T09:36:04.206Z,93481.25
2022-08-07T09:38:23.269Z,93465.06
2022-08-07T09:41:15.822Z,93471.53
2022-08-07T09:44:19.967Z,93479.44
2022-08-07T09:47:49.986Z,93473.63
2022-08-07T09:50:34.286Z,93463.97
2022-08-07T09:53:22.572Z,93462.75
2022-08-07T09:56:34.036Z,93454.84
2022-08-07T09:59:44.605Z,93456.56
2022-08-07T10:03:07.971Z,93449.97
2022-08-07T10:06:17.955Z,93447.97
2022-08-07T10:09:11.364Z,93433.56
2022-08-07T10:12:18.097Z,93437.06
2022-08-07T10:15:26.135Z,93441.09
2022-08-07T10:18:46.235Z,93438.06
2022-08-07T10:22:14.005Z,93439.53
2022-08-07T10:25:14.309Z,93436.03
2022-08-07T10:28:18.585Z,93435.44
2022-08-07T10:31:14.984Z,93426.03
2022-08-07T10:34:18.487Z,93422.50
2022-08-07T10:37:48.393Z,93418.75
2022-08-07T10:40:38.782Z,93413.94
2022-08-07T10:43:34.661Z,93409.47
2022-08-07T10:46:21.301Z,93411.41
2022-08-07T10:49:14.414Z,93415.66
2022-08-07T10:52:13.134Z,93421.13
2022-08-07T10:55:02.022Z,93414.94
2022-08-07T10:58:14.622Z,93412.13
2022-08-07T11:01:15.305Z,93409.25
2022-08-07T11:04:22.986Z,93406.63
2022-08-07T11:07:56.092Z,93406.88
2022-08-07T11:10:30.933Z,93409.75
2022-08-07T11:14:41.883Z,93405.72
2022-08-07T11:16:41.958Z,93395.69
2022-08-07T11:19:32.105Z,93397.81
2022-08-07T11:22:32.361Z,93399.63
2022-08-07T11:25:26.827Z,93404.44
2022-08-07T11:28:16.713Z,93393.91
2022-08-07T11:31:08.864Z,93386.84
2022-08-07T11:34:02.103Z,93389.31
2022-08-07T11:37:00.233Z,93386.44
2022-08-07T11:40:03.699Z,93386.81
2022-08-07T11:42:59.112Z,93387.50
2022-08-07T11:45:58.367Z,93377.78
2022-08-07T11:49:51.130Z,93386.34
2022-08-07T11:52:29.077Z,93379.13
2022-08-07T11:56:09.718Z,93382.81
2022-08-07T11:58:39.183Z,93376.72
2022-08-07T12:01:58.639Z,93375.34
2022-08-07T12:04:58.056Z,93381.25
2022-08-07T12:07:53.533Z,93375.84
2022-08-07T12:11:08.020Z,93373.50
2022-08-07T12:13:59.374Z,93376.59
2022-08-07T12:16:49.348Z,93362.78
2022-08-07T12:20:03.232Z,93357.75
2022-08-07T12:22:58.486Z,93354.69
2022-08-07T12:26:21.961Z,93359.97
2022-08-07T12:29:11.326Z,93353.81
2022-08-07T12:32:05.417Z,93362.22
2022-08-07T12:34:55.693Z,93356.97
2022-08-07T12:38:10.835Z,93356.41
2022-08-07T12:40:50.426Z,93355.97
2022-08-07T12:44:03.357Z,93352.56
2022-08-07T12:47:06.378Z,93352.38
2022-08-07T12:50:04.512Z,93350.19
2022-08-07T12:52:53.078Z,93341.94
2022-08-07T12:56:03.076Z,93339.34
2022-08-07T12:58:57.211Z,93336.94
2022-08-07T13:01:53.582Z,93348.19
2022-08-07T13:05:02.447Z,93330.34
2022-08-07T13:08:22.091Z,93331.38
2022-08-07T13:11:22.510Z,93335.47
2022-08-07T13:14:20.207Z,93328.06
2022-08-07T13:17:12.984Z,93323.78
2022-08-07T13:20:07.279Z,93323.69
2022-08-07T13:23:00.378Z,93328.28
2022-08-07T13:26:00.869Z,93318.81
2022-08-07T13:28:52.437Z,93324.97
2022-08-07T13:31:57.570Z,93318.91
2022-08-07T13:34:48.465Z,93312.25
2022-08-07T13:37:42.950Z,93302.97
2022-08-07T13:40:47.964Z,93307.47
2022-08-07T13:43:35.881Z,93309.31
2022-08-07T13:46:28.901Z,93311.69
2022-08-07T13:50:33.660Z,93307.94
2022-08-07T13:52:32.329Z,93303.16
2022-08-07T13:55:26.300Z,93297.66
2022-08-07T13:58:31.695Z,93298.97
2022-08-07T14:01:21.930Z,93295.81
2022-08-07T14:04:11.178Z,93296.84
2022-08-07T14:06:58.480Z,93295.00
2022-08-07T14:10:02.820Z,93291.28
2022-08-07T14:12:55.740Z,93293.59
2022-08-07T14:15:40.595Z,93287.94
2022-08-07T14:18:30.838Z,93283.00
2022-08-07T14:22:02.553Z,93288.06
2022-08-07T14:24:29.076Z,93286.25
2022-08-07T14:28:12.781Z,93285.50
2022-08-07T14:30:32.808Z,93277.34
2022-08-07T14:33:23.478Z,93282.25
2022-08-07T14:36:08.857Z,93279.69
2022-08-07T14:38:53.577Z,93278.41
2022-08-07T14:42:20.437Z,93288.22
2022-08-07T14:44:48.153Z,93284.97
2022-08-07T14:47:35.641Z,93277.22
2022-08-07T14:50:20.563Z,93280.03
2022-08-07T14:53:08.111Z,93285.31
2022-08-07T14:59:02.745Z,93288.19
2022-08-07T15:07:54.070Z,93278.06
2022-08-07T15:10:59.035Z,93274.88
2022-08-07T15:13:51.766Z,93275.41
2022-08-07T15:16:39.702Z,93271.16
2022-08-07T15:25:57.142Z,93283.59
2022-08-07T15:28:53.533Z,93274.78
2022-08-07T15:32:01.697Z,93280.25
2022-08-07T15:34:50.555Z,93276.66
2022-08-07T15:38:04.592Z,93273.22
2022-08-07T15:44:00.735Z,93270.84
2022-08-07T15:46:52.719Z,93269.16
2022-08-07T15:50:05.884Z,93272.41
2022-08-07T15:52:42.207Z,93271.75
2022-08-07T15:55:53.545Z,93275.34
2022-08-07T15:58:52.170Z,93268.81
2022-08-07T17:32:03.344Z,93254.19
2022-08-07T17:35:32.912Z,93254.94
2022-08-07T17:38:32.148Z,93257.53
2022-08-07T17:42:01.961Z,93260.69
2022-08-07T17:44:33.625Z,93264.50
2022-08-07T17:47:38.320Z,93266.50
2022-08-07T17:50:42.409Z,93274.94
2022-08-07T17:54:02.428Z,93277.97
2022-08-07T17:56:49.983Z,93278.03
2022-08-07T17:59:41.421Z,93270.63
2022-08-07T18:02:33.498Z,93274.25
2022-08-07T18:06:02.673Z,93272.88
2022-08-07T18:09:01.797Z,93280.97
2022-08-07T18:12:17.810Z,93275.97
2022-08-07T18:15:00.959Z,93285.66
2022-08-07T18:18:46.130Z,93280.22
2022-08-07T18:21:41.388Z,93282.63
2022-08-07T18:24:12.120Z,93287.84
2022-08-07T18:27:38.906Z,93290.88
2022-08-07T18:30:31.055Z,93287.84
2022-08-07T18:33:59.681Z,93286.47
2022-08-07T18:36:55.026Z,93291.88
2022-08-07T18:40:05.705Z,93290.88
2022-08-07T18:43:04.106Z,93295.72
2022-08-07T18:46:24.702Z,93295.09
2022-08-07T18:50:32.632Z,93300.09
2022-08-07T18:52:41.017Z,93306.75
2022-08-07T18:55:40.858Z,93300.72
2022-08-07T18:58:39.330Z,93311.16
2022-08-07T19:02:18.264Z,93305.09
2022-08-07T19:04:56.097Z,93306.09
2022-08-07T19:07:58.704Z,93311.75
2022-08-07T19:10:52.010Z,93315.34
2022-08-07T19:13:51.080Z,93311.53
2022-08-07T19:17:07.644Z,93323.72
2022-08-07T19:19:59.812Z,93323.09
2022-08-07T19:23:18.005Z,93328.47
2022-08-07T19:26:23.696Z,93332.47
2022-08-07T19:31:05.260Z,93336.09
2022-08-07T19:32:27.283Z,93334.44
2022-08-07T19:35:18.379Z,93334.84
2022-08-07T19:38:15.926Z,93342.25
2022-08-07T19:41:01.087Z,93344.03
2022-08-07T19:43:51.906Z,93340.16
2022-08-07T19:46:40.466Z,93344.91
2022-08-07T19:49:58.103Z,93341.03
2022-08-07T19:52:42.422Z,93347.28
2022-08-07T19:55:57.317Z,93355.22
2022-08-07T19:58:34.586Z,93351.16
2022-08-07T20:01:18.353Z,93355.09
2022-08-07T20:04:02.957Z,93361.22
2022-08-07T20:06:49.014Z,93355.97
2022-08-07T20:10:36.676Z,93350.31
2022-08-07T20:12:43.048Z,93354.72
2022-08-07T20:15:33.060Z,93355.47
2022-08-07T20:18:21.748Z,93357.84
2022-08-07T20:21:21.982Z,93356.78
2022-08-07T20:24:15.896Z,93357.53
2022-08-07T20:27:02.887Z,93360.56
2022-08-07T20:29:56.730Z,93362.81
2022-08-07T20:32:46.649Z,93366.03
2022-08-07T20:35:36.506Z,93372.84
2022-08-07T20:38:36.123Z,93371.41
2022-08-07T20:41:40.345Z,93369.75
2022-08-07T20:44:31.505Z,93381.53
2022-08-07T20:47:26.385Z,93375.50
2022-08-07T20:50:30.285Z,93379.72
2022-08-07T20:53:15.656Z,93373.72
2022-08-07T20:56:01.072Z,93379.78
2022-08-07T20:58:48.333Z,93380.53
2022-08-07T21:01:54.810Z,93388.28
2022-08-07T21:04:40.870Z,93374.72
2022-08-07T21:07:27.767Z,93369.47
2022-08-07T21:10:14.877Z,93369.03
2022-08-07T21:13:13.680Z,93377.28
2022-08-07T21:16:02.970Z,93377.22
2022-08-07T21:18:53.239Z,93376.03
2022-08-07T21:21:56.937Z,93370.28
2022-08-07T21:24:51.511Z,93370.16
2022-08-07T21:27:47.060Z,93363.94
2022-08-07T21:30:44.401Z,93371.72
2022-08-07T21:33:41.345Z,93364.28
2022-08-07T21:36:32.605Z,93366.88
2022-08-07T21:39:45.456Z,93374.06
2022-08-07T21:42:46.090Z,93375.03
2022-08-07T21:46:08.116Z,93380.81
2022-08-07T21:48:56.929Z,93382.16
2022-08-07T21:51:54.936Z,93387.44
2022-08-07T21:54:51.759Z,93384.59
2022-08-07T21:57:52.004Z,93386.47
2022-08-07T22:00:38.110Z,93383.16
2022-08-07T22:03:32.068Z,93385.28
2022-08-07T22:06:28.731Z,93384.22
2022-08-07T22:09:20.354Z,93384.41
2022-08-07T22:12:12.272Z,93377.16
2022-08-07T22:16:43.193Z,93380.75
2022-08-07T22:18:16.850Z,93373.94
2022-08-07T22:21:11.482Z,93370.41
2022-08-07T22:23:59.058Z,93373.38
2022-08-07T22:26:48.072Z,93368.47
2022-08-07T22:29:48.170Z,93363.13
2022-08-07T22:32:42.252Z,93356.72
2022-08-07T22:35:39.518Z,93358.47
2022-08-07T22:38:33.343Z,93354.28
2022-08-07T22:41:21.556Z,93355.63
2022-08-07T22:44:26.891Z,93352.75
2022-08-07T22:47:49.241Z,93355.88
2022-08-07T22:50:59.803Z,93358.06
2022-08-07T22:54:07.902Z,93358.47
2022-08-07T22:57:03.358Z,93359.16
2022-08-07T22:59:52.329Z,93359.22
2022-08-07T23:02:48.693Z,93352.69
2022-08-07T23:06:09.346Z,93354.16
2022-08-07T23:10:06.339Z,93355.28
2022-08-07T23:12:34.308Z,93350.34
2022-08-07T23:16:06.348Z,93352.06
2022-08-07T23:18:42.419Z,93356.91
2022-08-07T23:21:30.483Z,93360.50
2022-08-07T23:24:31.270Z,93356.63
2022-08-07T23:27:34.489Z,93348.69
2022-08-07T23:30:38.437Z,93346.44
2022-08-07T23:34:35.634Z,93342.63
2022-08-07T23:37:35.962Z,93347.81
2022-08-07T23:40:41.217Z,93349.47
2022-08-07T23:44:02.013Z,93346.75
2022-08-07T23:47:09.883Z,93348.91
2022-08-07T23:50:24.137Z,93336.41
2022-08-07T23:53:21.223Z,93341.13
2022-08-07T23:56:15.691Z,93341.75
